createdAt,value
2018-11-11T00:00:23.394Z,9.95
2018-11-11T00:02:52.665Z,9.84
2018-11-11T00:05:21.002Z,9.87
2018-11-11T00:07:49.326Z,9.79
2018-11-11T00:10:17.683Z,9.83
2018-11-11T00:12:46.004Z,9.77
2018-11-11T00:15:15.516Z,9.72
2018-11-11T00:17:44.875Z,9.64
2018-11-11T00:20:13.487Z,9.54
2018-11-11T00:22:42.040Z,9.53
2018-11-11T00:25:10.430Z,9.55
2018-11-11T00:27:39.544Z,9.42
2018-11-11T00:30:09.851Z,9.44
2018-11-11T00:32:38.171Z,9.42
2018-11-11T00:35:06.607Z,9.37
2018-11-11T00:37:34.888Z,9.43
2018-11-11T00:40:03.242Z,9.52
2018-11-11T00:42:31.547Z,9.45
2018-11-11T00:45:00.818Z,9.44
2018-11-11T00:47:29.119Z,9.47
2018-11-11T00:49:57.552Z,9.38
2018-11-11T00:52:25.854Z,9.23
2018-11-11T00:54:55.058Z,9.29
2018-11-11T00:57:23.551Z,9.35
2018-11-11T00:59:51.866Z,9.36
2018-11-11T01:02:20.219Z,9.29
2018-11-11T01:04:48.522Z,9.32
2018-11-11T01:07:16.893Z,9.36
2018-11-11T01:09:45.218Z,9.30
2018-11-11T01:12:13.596Z,9.32
2018-11-11T01:14:41.851Z,9.31
2018-11-11T01:17:10.479Z,9.17
2018-11-11T01:19:38.807Z,9.11
2018-11-11T01:22:07.122Z,9.14
2018-11-11T01:24:35.410Z,9.23
2018-11-11T01:27:03.747Z,9.16
2018-11-11T01:29:32.297Z,9.13
2018-11-11T01:32:00.599Z,9.17
2018-11-11T01:34:28.899Z,9.24
2018-11-11T01:36:57.195Z,9.20
2018-11-11T01:39:25.667Z,9.21
2018-11-11T01:41:54.195Z,9.25
2018-11-11T01:44:22.490Z,9.24
2018-11-11T01:46:50.811Z,9.18
2018-11-11T01:49:19.111Z,9.17
2018-11-11T01:51:47.423Z,9.13
2018-11-11T01:54:15.723Z,9.13
2018-11-11T01:56:44.037Z,9.00
2018-11-11T01:59:12.352Z,9.07
2018-11-11T02:01:41.359Z,9.15
2018-11-11T02:04:09.652Z,9.09
2018-11-11T02:06:37.979Z,9.03
2018-11-11T02:09:08.351Z,9.00
2018-11-11T02:11:36.680Z,9.07
2018-11-11T02:14:05.019Z,9.06
2018-11-11T02:16:33.341Z,9.08
2018-11-11T02:19:01.631Z,9.04
2018-11-11T02:21:30.016Z,9.04
2018-11-11T02:23:58.396Z,9.03
2018-11-11T02:26:26.707Z,8.99
2018-11-11T02:28:55.003Z,9.21
2018-11-11T02:31:23.335Z,9.15
2018-11-11T02:33:51.631Z,9.30
2018-11-11T02:36:19.951Z,9.30
2018-11-11T02:38:48.279Z,9.28
2018-11-11T02:41:16.589Z,9.35
2018-11-11T02:43:44.872Z,9.38
2018-11-11T02:46:13.191Z,9.42
2018-11-11T02:48:41.476Z,9.42
2018-11-11T02:51:10.335Z,9.46
2018-11-11T02:53:38.919Z,9.45
2018-11-11T02:56:07.732Z,9.44
2018-11-11T02:58:36.028Z,9.50
2018-11-11T03:01:04.403Z,9.46
2018-11-11T03:03:32.712Z,9.49
2018-11-11T03:06:01.011Z,9.48
2018-11-11T03:08:29.299Z,9.52
2018-11-11T03:10:57.619Z,9.54
2018-11-11T03:13:25.931Z,9.59
2018-11-11T03:15:54.231Z,9.61
2018-11-11T03:18:22.540Z,9.55
2018-11-11T03:20:50.835Z,9.50
2018-11-11T03:23:19.359Z,9.48
2018-11-11T03:25:47.675Z,9.41
2018-11-11T03:28:15.988Z,9.42
2018-11-11T03:30:44.285Z,9.46
2018-11-11T03:33:12.615Z,9.46
2018-11-11T03:35:40.911Z,9.46
2018-11-11T03:38:09.219Z,9.48
2018-11-11T03:40:37.488Z,9.46
2018-11-11T03:43:05.827Z,9.52
2018-11-11T03:45:34.835Z,9.51
2018-11-11T03:48:03.156Z,9.55
2018-11-11T03:50:31.451Z,9.60
2018-11-11T03:52:59.776Z,9.73
2018-11-11T03:55:28.079Z,9.73
2018-11-11T03:57:56.382Z,9.68
2018-11-11T04:00:24.654Z,9.73
2018-11-11T04:02:52.960Z,9.66
2018-11-11T04:05:21.252Z,9.78
2018-11-11T04:07:49.556Z,9.87
2018-11-11T04:10:18.926Z,9.98
2018-11-11T04:12:47.797Z,9.98
2018-11-11T04:15:17.327Z,10.00
2018-11-11T04:17:45.898Z,10.04
2018-11-11T04:20:15.578Z,10.02
2018-11-11T04:22:43.908Z,10.02
2018-11-11T04:25:12.584Z,10.04
2018-11-11T04:27:40.913Z,10.07
2018-11-11T04:30:10.239Z,10.10
2018-11-11T04:32:38.591Z,10.06
2018-11-11T04:35:07.324Z,10.04
2018-11-11T04:37:35.623Z,10.09
2018-11-11T04:40:04.047Z,10.11
2018-11-11T04:42:32.363Z,10.14
2018-11-11T04:45:00.647Z,10.12
2018-11-11T04:47:28.965Z,10.07
2018-11-11T04:49:57.264Z,10.08
2018-11-11T04:52:25.577Z,10.03
2018-11-11T04:54:53.861Z,10.06
2018-11-11T04:57:22.178Z,10.08
2018-11-11T04:59:50.506Z,10.02
2018-11-11T05:02:18.863Z,10.03
2018-11-11T05:04:47.257Z,9.97
2018-11-11T05:07:15.463Z,9.96
2018-11-11T05:09:43.800Z,10.03
2018-11-11T05:12:12.107Z,9.98
2018-11-11T05:14:40.411Z,10.00
2018-11-11T05:17:08.713Z,10.02
2018-11-11T05:19:37.023Z,9.99
2018-11-11T05:22:05.868Z,10.00
2018-11-11T05:24:34.180Z,10.01
2018-11-11T05:27:02.480Z,9.98
2018-11-11T05:29:30.795Z,10.05
2018-11-11T05:31:59.315Z,10.05
2018-11-11T05:34:27.655Z,10.07
2018-11-11T05:36:55.977Z,10.06
2018-11-11T05:39:24.281Z,10.05
2018-11-11T05:41:52.559Z,10.05
2018-11-11T05:44:20.871Z,10.05
2018-11-11T05:46:49.156Z,10.10
2018-11-11T05:49:17.483Z,10.09
2018-11-11T05:51:45.786Z,10.07
2018-11-11T05:54:14.141Z,10.07
2018-11-11T05:56:42.444Z,10.05
2018-11-11T05:59:10.751Z,10.03
2018-11-11T06:01:39.067Z,10.04
2018-11-11T06:04:07.427Z,10.03
2018-11-11T06:06:35.843Z,9.92
2018-11-11T06:09:05.112Z,9.93
2018-11-11T06:11:33.431Z,9.93
2018-11-11T06:14:01.806Z,9.90
2018-11-11T06:16:30.926Z,9.89
2018-11-11T06:19:00.078Z,9.84
2018-11-11T06:21:29.454Z,9.86
2018-11-11T06:23:58.980Z,9.79
2018-11-11T06:26:27.332Z,9.85
2018-11-11T06:28:55.677Z,9.80
2018-11-11T06:31:23.983Z,9.75
2018-11-11T06:33:52.358Z,9.74
2018-11-11T06:36:20.635Z,9.69
2018-11-11T06:38:48.987Z,9.59
2018-11-11T06:41:17.323Z,9.61
2018-11-11T06:43:45.655Z,9.65
2018-11-11T06:46:14.851Z,9.62
2018-11-11T06:48:43.187Z,9.53
2018-11-11T06:51:11.499Z,9.50
2018-11-11T06:53:40.104Z,9.54
2018-11-11T06:56:08.431Z,9.58
2018-11-11T06:58:36.772Z,9.71
2018-11-11T07:01:05.467Z,9.73
2018-11-11T07:03:58.964Z,9.75
2018-11-11T07:06:27.750Z,9.78
2018-11-11T07:08:56.183Z,9.74
2018-11-11T07:11:24.544Z,9.66
2018-11-11T07:13:52.943Z,9.69
2018-11-11T07:16:21.595Z,9.68
2018-11-11T07:18:49.936Z,9.73
2018-11-11T07:21:19.134Z,9.79
2018-11-11T07:23:47.849Z,9.85
2018-11-11T07:26:16.056Z,9.93
2018-11-11T07:28:44.545Z,9.92
2018-11-11T07:31:12.859Z,9.94
2018-11-11T07:33:41.230Z,9.96
2018-11-11T07:36:10.470Z,9.93
2018-11-11T07:38:38.815Z,9.96
2018-11-11T07:41:07.412Z,10.03
2018-11-11T07:43:36.083Z,10.05
2018-11-11T07:46:04.538Z,10.09
2018-11-11T07:48:33.186Z,10.09
2018-11-11T07:51:01.611Z,10.11
2018-11-11T07:53:30.008Z,10.12
2018-11-11T07:55:58.387Z,10.25
2018-11-11T07:58:26.800Z,10.30
2018-11-11T08:00:55.061Z,10.52
2018-11-11T08:03:23.423Z,10.56
2018-11-11T08:05:51.812Z,10.98
2018-11-11T08:08:20.136Z,10.96
2018-11-11T08:10:59.599Z,11.10
2018-11-11T08:13:28.024Z,12.02
2018-11-11T08:15:56.351Z,12.17
2018-11-11T08:18:24.676Z,11.60
2018-11-11T08:20:52.999Z,11.22
2018-11-11T08:23:21.957Z,11.25
2018-11-11T08:25:50.315Z,11.27
2018-11-11T08:28:18.631Z,11.67
2018-11-11T08:30:46.953Z,11.60
2018-11-11T08:33:15.365Z,11.34
2018-11-11T08:35:43.710Z,11.33
2018-11-11T08:38:12.043Z,11.17
2018-11-11T08:40:40.456Z,11.22
2018-11-11T08:43:08.720Z,11.41
2018-11-11T08:45:37.063Z,11.29
2018-11-11T08:48:05.582Z,11.59
2018-11-11T08:50:34.227Z,11.21
2018-11-11T08:53:02.555Z,11.26
2018-11-11T08:55:30.891Z,11.17
2018-11-11T08:57:59.286Z,11.72
2018-11-11T09:00:27.604Z,12.51
2018-11-11T09:02:55.923Z,12.37
2018-11-11T09:05:24.257Z,13.27
2018-11-11T09:07:52.572Z,13.15
2018-11-11T09:10:20.915Z,12.25
2018-11-11T09:12:49.251Z,12.32
2018-11-11T09:15:17.603Z,14.05
2018-11-11T09:17:45.927Z,13.33
2018-11-11T09:20:15.379Z,14.13
2018-11-11T09:22:43.692Z,13.71
2018-11-11T09:25:12.139Z,13.17
2018-11-11T09:27:41.823Z,12.67
2018-11-11T09:30:12.499Z,11.72
2018-11-11T09:32:41.036Z,11.83
2018-11-11T09:35:09.662Z,11.80
2018-11-11T09:37:38.408Z,12.62
2018-11-11T09:40:07.583Z,12.46
2018-11-11T09:42:35.986Z,11.98
2018-11-11T09:45:04.514Z,11.92
2018-11-11T09:47:32.891Z,12.57
2018-11-11T09:50:01.519Z,12.14
2018-11-11T09:52:29.891Z,11.86
2018-11-11T09:54:58.343Z,11.70
2018-11-11T09:57:27.903Z,11.78
2018-11-11T09:59:56.277Z,11.87
2018-11-11T10:02:24.642Z,12.02
2018-11-11T10:05:03.813Z,12.05
2018-11-11T10:07:37.715Z,12.24
2018-11-11T10:10:11.169Z,12.14
2018-11-11T10:12:46.738Z,11.94
2018-11-11T10:15:20.279Z,12.06
2018-11-11T10:17:53.599Z,11.94
2018-11-11T10:20:58.620Z,12.17
2018-11-11T10:23:34.499Z,12.34
2018-11-11T10:26:05.951Z,13.06
2018-11-11T10:30:44.588Z,13.17
2018-11-11T10:33:31.239Z,14.15
2018-11-11T10:36:05.898Z,13.96
2018-11-11T10:38:39.779Z,14.79
2018-11-11T10:41:13.173Z,15.23
2018-11-11T10:43:51.040Z,15.15
2018-11-11T10:46:28.125Z,14.00
2018-11-11T10:48:59.256Z,15.07
2018-11-11T10:51:27.608Z,13.20
2018-11-11T10:53:55.946Z,13.21
2018-11-11T10:56:24.271Z,13.01
2018-11-11T10:58:52.595Z,13.60
2018-11-11T11:01:26.844Z,14.16
2018-11-11T11:03:55.188Z,12.98
2018-11-11T11:06:28.931Z,13.15
2018-11-11T11:09:02.377Z,12.94
2018-11-11T11:11:30.751Z,13.01
2018-11-11T11:13:59.168Z,13.06
2018-11-11T11:16:27.464Z,13.14
2018-11-11T11:18:55.800Z,13.35
2018-11-11T11:21:24.123Z,13.81
2018-11-11T11:23:52.464Z,14.30
2018-11-11T11:26:20.779Z,14.23
2018-11-11T11:28:49.163Z,14.36
2018-11-11T11:31:17.505Z,13.81
2018-11-11T11:33:45.815Z,14.24
2018-11-11T11:36:14.160Z,14.84
2018-11-11T11:38:42.511Z,17.74
2018-11-11T11:41:10.850Z,20.41
2018-11-11T11:43:39.200Z,19.65
2018-11-11T11:46:07.519Z,21.46
2018-11-11T11:48:36.299Z,23.99
2018-11-11T11:51:04.687Z,20.06
2018-11-11T11:53:33.031Z,19.05
2018-11-11T11:56:01.367Z,19.67
2018-11-11T11:58:30.719Z,18.34
2018-11-11T12:00:59.099Z,17.95
2018-11-11T12:03:27.759Z,16.20
2018-11-11T12:05:56.103Z,15.82
2018-11-11T12:08:24.554Z,14.87
2018-11-11T12:10:52.878Z,14.54
2018-11-11T12:13:21.224Z,14.46
2018-11-11T12:15:49.547Z,14.24
2018-11-11T12:18:17.878Z,14.26
2018-11-11T12:20:46.211Z,14.16
2018-11-11T12:23:15.041Z,14.31
2018-11-11T12:25:43.324Z,14.27
2018-11-11T12:28:11.655Z,14.31
2018-11-11T12:30:39.993Z,14.08
2018-11-11T12:33:08.332Z,14.09
2018-11-11T12:35:36.684Z,14.35
2018-11-11T12:38:05.288Z,14.12
2018-11-11T12:40:33.895Z,13.99
2018-11-11T12:43:02.218Z,13.80
2018-11-11T12:45:30.559Z,13.89
2018-11-11T12:47:58.866Z,13.81
2018-11-11T12:50:27.300Z,13.46
2018-11-11T12:52:55.551Z,13.34
2018-11-11T12:55:23.959Z,13.35
2018-11-11T12:57:52.255Z,13.30
2018-11-11T13:00:20.591Z,13.53
2018-11-11T13:02:48.903Z,13.63
2018-11-11T13:05:17.243Z,13.60
2018-11-11T13:07:45.570Z,13.53
2018-11-11T13:10:14.391Z,13.61
2018-11-11T13:12:43.439Z,16.55
2018-11-11T13:15:13.019Z,16.15
2018-11-11T13:17:41.739Z,16.89
2018-11-11T13:20:12.895Z,16.36
2018-11-11T13:22:41.297Z,15.12
2018-11-11T13:25:10.788Z,14.78
2018-11-11T13:27:39.447Z,15.23
2018-11-11T13:30:09.596Z,14.93
2018-11-11T13:32:38.127Z,15.41
2018-11-11T13:35:07.647Z,14.69
2018-11-11T13:37:35.991Z,14.55
2018-11-11T13:40:05.384Z,15.95
2018-11-11T13:42:33.715Z,16.05
2018-11-11T13:45:02.064Z,15.53
2018-11-11T13:47:30.385Z,14.39
2018-11-11T13:49:58.716Z,13.94
2018-11-11T13:52:27.055Z,14.38
2018-11-11T13:54:55.379Z,14.78
2018-11-11T13:57:23.723Z,15.68
2018-11-11T13:59:52.068Z,15.15
2018-11-11T14:02:20.416Z,15.15
2018-11-11T14:04:48.755Z,14.34
2018-11-11T14:07:17.085Z,14.01
2018-11-11T14:09:45.622Z,14.19
2018-11-11T14:12:13.915Z,14.02
2018-11-11T14:14:42.292Z,14.65
2018-11-11T14:17:10.599Z,16.34
2018-11-11T14:19:39.013Z,17.15
2018-11-11T14:22:07.719Z,17.96
2018-11-11T14:24:36.988Z,16.96
2018-11-11T14:27:05.871Z,16.09
2018-11-11T14:29:34.198Z,14.90
2018-11-11T14:32:02.628Z,14.31
2018-11-11T14:34:31.009Z,14.41
2018-11-11T14:36:59.288Z,14.13
2018-11-11T14:39:27.627Z,13.81
2018-11-11T14:41:55.990Z,13.68
2018-11-11T14:44:24.327Z,13.61
2018-11-11T14:46:53.171Z,13.54
2018-11-11T14:49:21.533Z,13.57
2018-11-11T14:51:49.931Z,13.65
2018-11-11T14:54:18.223Z,13.74
2018-11-11T14:56:46.579Z,13.80
2018-11-11T14:59:14.899Z,13.67
2018-11-11T15:01:43.323Z,13.77
2018-11-11T15:04:11.769Z,13.72
2018-11-11T15:06:40.734Z,13.70
2018-11-11T15:09:10.920Z,13.66
2018-11-11T15:11:40.840Z,13.73
2018-11-11T15:14:09.939Z,13.76
2018-11-11T15:16:38.480Z,13.69
2018-11-11T15:19:07.484Z,13.50
2018-11-11T15:21:35.937Z,13.50
2018-11-11T15:24:05.048Z,13.35
2018-11-11T15:26:33.608Z,13.25
2018-11-11T15:29:02.228Z,13.23
2018-11-11T15:31:31.333Z,13.27
2018-11-11T15:34:01.638Z,13.20
2018-11-11T15:36:30.645Z,13.20
2018-11-11T15:38:59.246Z,13.20
2018-11-11T15:41:27.887Z,13.16
2018-11-11T15:43:57.368Z,13.18
2018-11-11T15:46:25.959Z,13.10
2018-11-11T15:48:54.499Z,13.08
2018-11-11T15:51:23.549Z,13.13
2018-11-11T15:53:52.329Z,13.15
2018-11-11T15:56:20.811Z,13.09
2018-11-11T15:58:49.310Z,13.07
2018-11-11T16:01:17.852Z,12.93
2018-11-11T16:03:46.355Z,13.08
2018-11-11T16:06:14.944Z,13.00
2018-11-11T16:08:43.507Z,13.02
2018-11-11T16:11:11.983Z,13.09
2018-11-11T16:13:40.455Z,12.98
2018-11-11T16:16:09.067Z,12.99
2018-11-11T16:18:37.698Z,13.00
2018-11-11T16:21:06.341Z,13.01
2018-11-11T16:23:35.012Z,12.97
2018-11-11T16:26:03.391Z,12.83
2018-11-11T16:28:31.931Z,12.71
2018-11-11T16:31:00.331Z,12.57
2018-11-11T16:33:28.762Z,12.45
2018-11-11T16:35:57.275Z,12.37
2018-11-11T16:38:25.764Z,12.42
2018-11-11T16:40:54.467Z,12.37
2018-11-11T16:43:22.695Z,12.36
2018-11-11T16:45:51.011Z,12.31
2018-11-11T16:48:19.330Z,12.39
2018-11-11T16:50:47.619Z,12.33
2018-11-11T16:53:16.045Z,12.35
2018-11-11T16:55:44.256Z,12.39
2018-11-11T16:58:12.568Z,12.40
2018-11-11T17:00:40.880Z,12.39
2018-11-11T17:03:09.688Z,12.34
2018-11-11T17:05:38.567Z,12.31
2018-11-11T17:08:07.059Z,12.37
2018-11-11T17:10:36.453Z,12.46
2018-11-11T17:13:07.311Z,12.45
2018-11-11T17:15:35.643Z,12.46
2018-11-11T17:18:03.983Z,12.46
2018-11-11T17:20:32.350Z,12.49
2018-11-11T17:23:02.152Z,12.61
2018-11-11T17:25:30.458Z,12.68
2018-11-11T17:27:58.853Z,12.72
2018-11-11T17:30:28.603Z,12.82
2018-11-11T17:32:57.596Z,12.75
2018-11-11T17:35:25.881Z,12.77
2018-11-11T17:37:54.211Z,12.81
2018-11-11T17:40:23.820Z,12.82
2018-11-11T17:42:53.039Z,12.69
2018-11-11T17:45:21.517Z,12.73
2018-11-11T17:47:50.687Z,12.77
2018-11-11T17:50:25.309Z,12.79
2018-11-11T17:52:53.620Z,12.76
2018-11-11T17:55:23.207Z,12.77
2018-11-11T17:57:51.451Z,12.74
2018-11-11T18:00:21.176Z,12.74
2018-11-11T18:02:49.510Z,12.84
2018-11-11T18:05:20.279Z,12.73
2018-11-11T18:07:50.324Z,12.69
2018-11-11T18:10:20.108Z,12.54
2018-11-11T18:12:48.819Z,12.49
2018-11-11T18:15:18.805Z,12.58
2018-11-11T18:17:47.108Z,12.55
2018-11-11T18:20:17.064Z,12.60
2018-11-11T18:22:45.691Z,12.57
2018-11-11T18:25:14.123Z,12.40
2018-11-11T18:27:42.451Z,12.37
2018-11-11T18:30:13.759Z,12.42
2018-11-11T18:32:42.322Z,12.32
2018-11-11T18:35:12.481Z,12.39
2018-11-11T18:37:41.863Z,12.56
2018-11-11T18:40:12.758Z,12.55
2018-11-11T18:42:42.108Z,12.49
2018-11-11T18:45:13.779Z,12.42
2018-11-11T18:47:43.441Z,12.32
2018-11-11T18:50:15.048Z,12.32
2018-11-11T18:52:44.360Z,12.35
2018-11-11T18:55:12.880Z,12.30
2018-11-11T18:57:42.241Z,12.34
2018-11-11T19:00:13.946Z,12.43
2018-11-11T19:02:42.963Z,12.47
2018-11-11T19:05:12.831Z,12.52
2018-11-11T19:07:42.307Z,12.56
2018-11-11T19:10:13.857Z,12.58
2018-11-11T19:12:43.845Z,12.64
2018-11-11T19:15:13.363Z,12.64
2018-11-11T19:17:43.535Z,12.63
2018-11-11T19:20:13.183Z,12.65
2018-11-11T19:22:41.512Z,12.73
2018-11-11T19:25:12.358Z,12.78
2018-11-11T19:27:41.203Z,12.79
2018-11-11T19:30:10.355Z,12.80
2018-11-11T19:32:39.575Z,12.79
2018-11-11T19:35:08.342Z,12.76
2018-11-11T19:37:36.703Z,12.68
2018-11-11T19:40:06.583Z,12.70
2018-11-11T19:42:34.916Z,12.67
2018-11-11T19:45:03.257Z,12.53
2018-11-11T19:47:31.584Z,12.49
2018-11-11T19:50:00.264Z,12.65
2018-11-11T19:52:30.213Z,12.37
2018-11-11T19:54:58.535Z,12.12
2018-11-11T19:57:26.858Z,11.65
2018-11-11T19:59:55.159Z,11.74
2018-11-11T20:02:24.196Z,11.47
2018-11-11T20:04:52.876Z,11.60
2018-11-11T20:07:22.119Z,11.40
2018-11-11T20:09:51.312Z,11.37
2018-11-11T20:12:20.812Z,11.35
2018-11-11T20:14:49.625Z,11.16
2018-11-11T20:17:18.714Z,11.17
2018-11-11T20:19:47.268Z,11.02
2018-11-11T20:22:16.607Z,11.21
2018-11-11T20:24:45.195Z,11.16
2018-11-11T20:27:14.066Z,11.01
2018-11-11T20:29:42.988Z,11.06
2018-11-11T20:39:16.922Z,11.09
2018-11-11T20:41:46.447Z,10.85
2018-11-11T20:44:15.353Z,10.94
2018-11-11T20:46:45.096Z,10.83
2018-11-11T20:49:13.416Z,10.79
2018-11-11T20:51:41.743Z,10.83
2018-11-11T20:54:10.704Z,10.76
2018-11-11T20:56:39.090Z,10.90
2018-11-11T20:59:07.352Z,11.12
2018-11-11T21:01:35.696Z,10.90
2018-11-11T21:04:04.075Z,11.00
2018-11-11T21:06:32.643Z,10.85
2018-11-11T21:09:02.803Z,10.86
2018-11-11T21:11:31.623Z,10.91
2018-11-11T21:14:01.269Z,10.85
2018-11-11T21:16:30.276Z,10.79
2018-11-11T21:18:59.339Z,10.77
2018-11-11T21:21:28.003Z,10.78
2018-11-11T21:23:57.504Z,10.86
2018-11-11T21:26:25.915Z,11.02
2018-11-11T21:28:57.332Z,10.77
2018-11-11T21:31:26.060Z,10.94
2018-11-11T21:33:54.919Z,10.70
2018-11-11T21:36:23.589Z,10.54
2018-11-11T21:38:52.331Z,10.42
2018-11-11T21:41:21.779Z,10.49
2018-11-11T21:43:52.419Z,10.25
2018-11-11T21:46:21.870Z,10.19
2018-11-11T21:48:51.091Z,10.13
2018-11-11T21:51:19.893Z,10.09
2018-11-11T21:53:49.488Z,10.13
2018-11-11T21:56:19.546Z,10.13
2018-11-11T21:58:48.523Z,10.25
2018-11-11T22:01:17.785Z,10.44
2018-11-11T22:03:47.255Z,10.30
2018-11-11T22:06:15.558Z,10.17
2018-11-11T22:08:43.993Z,10.30
2018-11-11T22:11:12.240Z,10.26
2018-11-11T22:13:40.572Z,10.31
2018-11-11T22:16:10.062Z,10.23
2018-11-11T22:18:39.242Z,10.16
2018-11-11T22:21:08.597Z,10.19
2018-11-11T22:23:38.812Z,10.22
2018-11-11T22:26:08.403Z,10.11
2018-11-11T22:28:36.768Z,10.19
2018-11-11T22:31:05.585Z,10.24
2018-11-11T22:33:34.280Z,10.42
2018-11-11T22:36:02.603Z,10.44
2018-11-11T22:38:30.939Z,10.30
2018-11-11T22:40:59.275Z,10.36
2018-11-11T22:43:28.092Z,10.30
2018-11-11T22:45:56.511Z,10.35
2018-11-11T22:48:25.285Z,10.32
2018-11-11T22:50:53.960Z,10.12
2018-11-11T22:53:23.459Z,10.10
2018-11-11T22:55:51.792Z,10.04
2018-11-11T22:58:20.099Z,9.99
2018-11-11T23:00:53.922Z,9.77
2018-11-11T23:03:22.666Z,9.58
2018-11-11T23:05:51.035Z,9.52
2018-11-11T23:08:19.388Z,9.31
2018-11-11T23:10:47.732Z,9.14
2018-11-11T23:13:17.364Z,8.98
2018-11-11T23:15:45.935Z,8.92
2018-11-11T23:18:15.136Z,8.83
2018-11-11T23:20:43.468Z,8.77
2018-11-11T23:23:11.931Z,8.67
2018-11-11T23:25:40.251Z,8.78
2018-11-11T23:28:09.005Z,8.70
2018-11-11T23:30:37.847Z,8.66
2018-11-11T23:33:06.971Z,8.68
2018-11-11T23:35:35.319Z,8.73
2018-11-11T23:38:03.664Z,8.73
2018-11-11T23:40:32.028Z,8.79
2018-11-11T23:43:00.336Z,8.74
2018-11-11T23:45:28.684Z,8.65
2018-11-11T23:47:56.992Z,8.70
2018-11-11T23:50:25.715Z,8.77
2018-11-11T23:52:54.019Z,8.85
2018-11-11T23:55:23.387Z,8.94
2018-11-11T23:57:51.686Z,9.02
